sensor_id;sensor_type;location;lat;lon;timestamp;P1;durP1;ratioP1;P2;durP2;ratioP2
10230;SDS011;62604;49.432;8.680;2023-05-23T00:00:36;23.05;;;15.77;;
10230;SDS011;62604;49.432;8.680;2023-05-23T00:03:04;21.17;;;14.70;;
10230;SDS011;62604;49.432;8.680;2023-05-23T00:05:33;22.90;;;15.27;;
10230;SDS011;62604;49.432;8.680;2023-05-23T00:08:00;25.00;;;16.70;;
10230;SDS011;62604;49.432;8.680;2023-05-23T00:10:27;26.33;;;16.38;;
10230;SDS011;62604;49.432;8.680;2023-05-23T00:13:02;25.48;;;15.07;;
10230;SDS011;62604;49.432;8.680;2023-05-23T00:15:35;25.67;;;16.15;;
10230;SDS011;62604;49.432;8.680;2023-05-23T00:18:05;22.17;;;14.90;;
10230;SDS011;62604;49.432;8.680;2023-05-23T00:20:35;30.73;;;15.20;;
10230;SDS011;62604;49.432;8.680;2023-05-23T00:23:05;24.88;;;15.52;;
10230;SDS011;62604;49.432;8.680;2023-05-23T00:25:46;26.20;;;14.25;;
10230;SDS011;62604;49.432;8.680;2023-05-23T00:28:16;23.70;;;14.27;;
10230;SDS011;62604;49.432;8.680;2023-05-23T00:30:47;24.63;;;16.05;;
10230;SDS011;62604;49.432;8.680;2023-05-23T00:33:15;29.40;;;21.50;;
10230;SDS011;62604;49.432;8.680;2023-05-23T00:35:46;31.60;;;22.45;;
10230;SDS011;62604;49.432;8.680;2023-05-23T00:38:15;29.40;;;19.98;;
10230;SDS011;62604;49.432;8.680;2023-05-23T00:40:42;27.00;;;21.58;;
10230;SDS011;62604;49.432;8.680;2023-05-23T00:43:10;29.05;;;17.70;;
10230;SDS011;62604;49.432;8.680;2023-05-23T00:45:38;30.15;;;18.55;;
10230;SDS011;62604;49.432;8.680;2023-05-23T00:48:07;32.17;;;23.17;;
10230;SDS011;62604;49.432;8.680;2023-05-23T00:50:35;29.92;;;22.48;;
10230;SDS011;62604;49.432;8.680;2023-05-23T00:53:03;27.83;;;21.48;;
10230;SDS011;62604;49.432;8.680;2023-05-23T00:55:31;33.47;;;22.90;;
10230;SDS011;62604;49.432;8.680;2023-05-23T00:57:59;32.53;;;22.55;;
10230;SDS011;62604;49.432;8.680;2023-05-23T01:00:27;30.23;;;22.75;;
10230;SDS011;62604;49.432;8.680;2023-05-23T01:02:56;27.60;;;21.23;;
10230;SDS011;62604;49.432;8.680;2023-05-23T01:05:25;35.80;;;20.60;;
10230;SDS011;62604;49.432;8.680;2023-05-23T01:07:52;30.30;;;18.90;;
10230;SDS011;62604;49.432;8.680;2023-05-23T01:10:22;32.67;;;20.27;;
10230;SDS011;62604;49.432;8.680;2023-05-23T01:12:57;37.03;;;19.95;;
10230;SDS011;62604;49.432;8.680;2023-05-23T01:15:37;29.80;;;21.60;;
10230;SDS011;62604;49.432;8.680;2023-05-23T01:18:09;36.28;;;24.95;;
10230;SDS011;62604;49.432;8.680;2023-05-23T01:20:46;29.80;;;20.83;;
10230;SDS011;62604;49.432;8.680;2023-05-23T01:23:24;28.40;;;20.50;;
10230;SDS011;62604;49.432;8.680;2023-05-23T01:26:12;38.30;;;21.77;;
10230;SDS011;62604;49.432;8.680;2023-05-23T01:28:53;32.35;;;23.30;;
10230;SDS011;62604;49.432;8.680;2023-05-23T01:31:24;30.52;;;20.42;;
10230;SDS011;62604;49.432;8.680;2023-05-23T01:33:55;31.48;;;20.00;;
10230;SDS011;62604;49.432;8.680;2023-05-23T01:36:23;35.80;;;24.30;;
10230;SDS011;62604;49.432;8.680;2023-05-23T01:38:52;31.90;;;16.75;;
10230;SDS011;62604;49.432;8.680;2023-05-23T01:41:19;28.50;;;16.77;;
10230;SDS011;62604;49.432;8.680;2023-05-23T01:43:46;30.50;;;19.95;;
10230;SDS011;62604;49.432;8.680;2023-05-23T01:46:15;28.58;;;20.13;;
10230;SDS011;62604;49.432;8.680;2023-05-23T01:48:42;32.97;;;20.83;;
10230;SDS011;62604;49.432;8.680;2023-05-23T01:51:11;33.42;;;18.40;;
10230;SDS011;62604;49.432;8.680;2023-05-23T01:53:39;39.45;;;20.45;;
10230;SDS011;62604;49.432;8.680;2023-05-23T01:56:07;31.40;;;17.95;;
10230;SDS011;62604;49.432;8.680;2023-05-23T01:58:34;41.58;;;25.23;;
10230;SDS011;62604;49.432;8.680;2023-05-23T02:01:02;33.92;;;24.98;;
10230;SDS011;62604;49.432;8.680;2023-05-23T02:03:32;35.58;;;23.77;;
10230;SDS011;62604;49.432;8.680;2023-05-23T02:05:59;35.97;;;25.25;;
10230;SDS011;62604;49.432;8.680;2023-05-23T02:08:26;39.30;;;24.33;;
10230;SDS011;62604;49.432;8.680;2023-05-23T02:10:53;40.38;;;25.95;;
10230;SDS011;62604;49.432;8.680;2023-05-23T02:13:20;36.55;;;26.23;;
10230;SDS011;62604;49.432;8.680;2023-05-23T02:15:49;34.00;;;24.27;;
10230;SDS011;62604;49.432;8.680;2023-05-23T02:18:16;34.58;;;24.52;;
10230;SDS011;62604;49.432;8.680;2023-05-23T02:20:46;41.03;;;26.33;;
10230;SDS011;62604;49.432;8.680;2023-05-23T02:23:13;38.35;;;24.05;;
10230;SDS011;62604;49.432;8.680;2023-05-23T02:25:40;37.05;;;25.55;;
10230;SDS011;62604;49.432;8.680;2023-05-23T02:28:07;33.35;;;25.02;;
10230;SDS011;62604;49.432;8.680;2023-05-23T02:30:35;43.22;;;26.23;;
10230;SDS011;62604;49.432;8.680;2023-05-23T02:33:06;40.70;;;26.58;;
10230;SDS011;62604;49.432;8.680;2023-05-23T02:35:33;34.13;;;25.87;;
10230;SDS011;62604;49.432;8.680;2023-05-23T02:38:01;33.67;;;23.50;;
10230;SDS011;62604;49.432;8.680;2023-05-23T02:40:30;34.00;;;25.13;;
10230;SDS011;62604;49.432;8.680;2023-05-23T02:42:57;38.50;;;25.60;;
10230;SDS011;62604;49.432;8.680;2023-05-23T02:45:24;41.78;;;25.10;;
10230;SDS011;62604;49.432;8.680;2023-05-23T02:47:51;41.08;;;26.17;;
10230;SDS011;62604;49.432;8.680;2023-05-23T02:50:18;37.03;;;24.55;;
10230;SDS011;62604;49.432;8.680;2023-05-23T02:52:45;42.53;;;26.63;;
10230;SDS011;62604;49.432;8.680;2023-05-23T02:55:13;38.38;;;26.02;;
10230;SDS011;62604;49.432;8.680;2023-05-23T02:57:41;35.30;;;25.27;;
10230;SDS011;62604;49.432;8.680;2023-05-23T03:00:11;39.83;;;26.60;;
10230;SDS011;62604;49.432;8.680;2023-05-23T03:02:40;36.67;;;25.60;;
10230;SDS011;62604;49.432;8.680;2023-05-23T03:05:07;39.97;;;25.83;;
10230;SDS011;62604;49.432;8.680;2023-05-23T03:07:34;40.65;;;27.35;;
10230;SDS011;62604;49.432;8.680;2023-05-23T03:10:02;35.97;;;26.37;;
10230;SDS011;62604;49.432;8.680;2023-05-23T03:12:31;35.47;;;24.23;;
10230;SDS011;62604;49.432;8.680;2023-05-23T03:14:58;39.35;;;26.75;;
10230;SDS011;62604;49.432;8.680;2023-05-23T03:17:26;40.72;;;25.95;;
10230;SDS011;62604;49.432;8.680;2023-05-23T03:19:53;38.80;;;26.13;;
10230;SDS011;62604;49.432;8.680;2023-05-23T03:22:20;39.97;;;24.23;;
10230;SDS011;62604;49.432;8.680;2023-05-23T03:24:50;35.40;;;24.13;;
10230;SDS011;62604;49.432;8.680;2023-05-23T03:27:18;39.03;;;26.90;;
10230;SDS011;62604;49.432;8.680;2023-05-23T03:29:46;33.92;;;25.25;;
10230;SDS011;62604;49.432;8.680;2023-05-23T03:32:13;37.45;;;27.25;;
10230;SDS011;62604;49.432;8.680;2023-05-23T03:34:41;37.47;;;25.58;;
10230;SDS011;62604;49.432;8.680;2023-05-23T03:37:08;36.58;;;25.27;;
10230;SDS011;62604;49.432;8.680;2023-05-23T03:39:35;34.88;;;25.73;;
10230;SDS011;62604;49.432;8.680;2023-05-23T03:42:03;35.08;;;25.42;;
10230;SDS011;62604;49.432;8.680;2023-05-23T03:44:30;39.28;;;27.08;;
10230;SDS011;62604;49.432;8.680;2023-05-23T03:46:59;41.60;;;25.10;;
10230;SDS011;62604;49.432;8.680;2023-05-23T03:49:27;38.72;;;25.27;;
10230;SDS011;62604;49.432;8.680;2023-05-23T03:51:54;35.90;;;24.90;;
10230;SDS011;62604;49.432;8.680;2023-05-23T03:54:23;32.92;;;25.05;;
10230;SDS011;62604;49.432;8.680;2023-05-23T03:56:51;40.22;;;27.38;;
10230;SDS011;62604;49.432;8.680;2023-05-23T03:59:18;33.45;;;25.55;;
10230;SDS011;62604;49.432;8.680;2023-05-23T04:01:45;29.67;;;23.73;;
10230;SDS011;62604;49.432;8.680;2023-05-23T04:04:13;38.53;;;26.15;;
10230;SDS011;62604;49.432;8.680;2023-05-23T04:06:41;38.20;;;26.00;;
10230;SDS011;62604;49.432;8.680;2023-05-23T04:09:08;37.53;;;24.98;;
10230;SDS011;62604;49.432;8.680;2023-05-23T04:11:36;34.67;;;24.05;;
10230;SDS011;62604;49.432;8.680;2023-05-23T04:14:03;35.40;;;23.42;;
10230;SDS011;62604;49.432;8.680;2023-05-23T04:16:32;36.42;;;23.50;;
10230;SDS011;62604;49.432;8.680;2023-05-23T04:19:00;28.52;;;22.17;;
10230;SDS011;62604;49.432;8.680;2023-05-23T04:21:29;34.22;;;24.45;;
10230;SDS011;62604;49.432;8.680;2023-05-23T04:23:57;31.30;;;23.70;;
10230;SDS011;62604;49.432;8.680;2023-05-23T04:26:24;34.38;;;24.15;;
10230;SDS011;62604;49.432;8.680;2023-05-23T04:28:51;34.47;;;24.10;;
10230;SDS011;62604;49.432;8.680;2023-05-23T04:31:22;34.30;;;25.02;;
10230;SDS011;62604;49.432;8.680;2023-05-23T04:33:49;33.60;;;25.52;;
10230;SDS011;62604;49.432;8.680;2023-05-23T04:36:17;29.58;;;24.52;;
10230;SDS011;62604;49.432;8.680;2023-05-23T04:38:46;31.98;;;24.33;;
10230;SDS011;62604;49.432;8.680;2023-05-23T04:41:13;32.63;;;23.70;;
10230;SDS011;62604;49.432;8.680;2023-05-23T04:43:41;31.15;;;24.65;;
10230;SDS011;62604;49.432;8.680;2023-05-23T04:46:10;34.33;;;23.55;;
10230;SDS011;62604;49.432;8.680;2023-05-23T04:48:37;30.52;;;23.85;;
10230;SDS011;62604;49.432;8.680;2023-05-23T04:51:06;29.15;;;22.70;;
10230;SDS011;62604;49.432;8.680;2023-05-23T04:53:35;26.52;;;22.38;;
10230;SDS011;62604;49.432;8.680;2023-05-23T04:56:08;28.38;;;22.48;;
10230;SDS011;62604;49.432;8.680;2023-05-23T04:58:36;28.35;;;22.40;;
10230;SDS011;62604;49.432;8.680;2023-05-23T05:01:04;26.05;;;20.75;;
10230;SDS011;62604;49.432;8.680;2023-05-23T05:03:33;28.38;;;21.50;;
10230;SDS011;62604;49.432;8.680;2023-05-23T05:06:01;26.80;;;20.48;;
10230;SDS011;62604;49.432;8.680;2023-05-23T05:08:30;24.08;;;19.50;;
10230;SDS011;62604;49.432;8.680;2023-05-23T05:10:57;24.38;;;20.30;;
10230;SDS011;62604;49.432;8.680;2023-05-23T05:13:28;25.02;;;20.83;;
10230;SDS011;62604;49.432;8.680;2023-05-23T05:15:56;26.02;;;20.35;;
10230;SDS011;62604;49.432;8.680;2023-05-23T05:18:24;27.83;;;20.45;;
10230;SDS011;62604;49.432;8.680;2023-05-23T05:20:52;23.67;;;20.52;;
10230;SDS011;62604;49.432;8.680;2023-05-23T05:23:24;23.63;;;20.15;;
10230;SDS011;62604;49.432;8.680;2023-05-23T05:25:56;23.00;;;19.67;;
10230;SDS011;62604;49.432;8.680;2023-05-23T05:28:24;23.73;;;20.60;;
10230;SDS011;62604;49.432;8.680;2023-05-23T05:30:53;22.95;;;19.88;;
10230;SDS011;62604;49.432;8.680;2023-05-23T05:33:20;22.35;;;16.02;;
10230;SDS011;62604;49.432;8.680;2023-05-23T05:35:49;24.05;;;19.73;;
10230;SDS011;62604;49.432;8.680;2023-05-23T05:38:17;21.30;;;18.98;;
10230;SDS011;62604;49.432;8.680;2023-05-23T05:40:44;23.92;;;20.13;;
10230;SDS011;62604;49.432;8.680;2023-05-23T05:43:12;23.92;;;19.65;;
10230;SDS011;62604;49.432;8.680;2023-05-23T05:45:39;23.73;;;20.27;;
10230;SDS011;62604;49.432;8.680;2023-05-23T05:48:07;26.08;;;20.55;;
10230;SDS011;62604;49.432;8.680;2023-05-23T05:50:35;26.17;;;20.77;;
10230;SDS011;62604;49.432;8.680;2023-05-23T05:53:03;23.98;;;19.15;;
10230;SDS011;62604;49.432;8.680;2023-05-23T05:55:37;27.02;;;19.50;;
10230;SDS011;62604;49.432;8.680;2023-05-23T05:58:06;19.25;;;15.25;;
10230;SDS011;62604;49.432;8.680;2023-05-23T06:00:35;26.88;;;18.27;;
10230;SDS011;62604;49.432;8.680;2023-05-23T06:03:07;20.88;;;18.67;;
10230;SDS011;62604;49.432;8.680;2023-05-23T06:05:36;21.98;;;19.27;;
10230;SDS011;62604;49.432;8.680;2023-05-23T06:08:03;26.63;;;17.35;;
10230;SDS011;62604;49.432;8.680;2023-05-23T06:10:32;21.95;;;18.45;;
10230;SDS011;62604;49.432;8.680;2023-05-23T06:13:00;20.52;;;17.80;;
10230;SDS011;62604;49.432;8.680;2023-05-23T06:15:28;19.88;;;17.77;;
10230;SDS011;62604;49.432;8.680;2023-05-23T06:17:56;22.30;;;17.80;;
10230;SDS011;62604;49.432;8.680;2023-05-23T06:20:27;22.27;;;18.67;;
10230;SDS011;62604;49.432;8.680;2023-05-23T06:22:54;21.30;;;18.52;;
10230;SDS011;62604;49.432;8.680;2023-05-23T06:25:22;21.83;;;17.85;;
10230;SDS011;62604;49.432;8.680;2023-05-23T06:27:49;20.13;;;17.70;;
10230;SDS011;62604;49.432;8.680;2023-05-23T06:30:16;18.52;;;16.63;;
10230;SDS011;62604;49.432;8.680;2023-05-23T06:32:44;20.98;;;17.00;;
10230;SDS011;62604;49.432;8.680;2023-05-23T06:35:12;19.27;;;17.38;;
10230;SDS011;62604;49.432;8.680;2023-05-23T06:37:41;20.30;;;16.90;;
10230;SDS011;62604;49.432;8.680;2023-05-23T06:40:10;17.30;;;15.60;;
10230;SDS011;62604;49.432;8.680;2023-05-23T06:42:38;18.10;;;16.30;;
10230;SDS011;62604;49.432;8.680;2023-05-23T06:45:06;18.02;;;16.33;;
10230;SDS011;62604;49.432;8.680;2023-05-23T06:47:34;18.55;;;16.63;;
10230;SDS011;62604;49.432;8.680;2023-05-23T06:50:02;17.80;;;15.88;;
10230;SDS011;62604;49.432;8.680;2023-05-23T06:52:30;19.33;;;15.68;;
10230;SDS011;62604;49.432;8.680;2023-05-23T06:54:58;17.98;;;16.08;;
10230;SDS011;62604;49.432;8.680;2023-05-23T06:57:26;16.77;;;15.18;;
10230;SDS011;62604;49.432;8.680;2023-05-23T06:59:53;17.70;;;15.80;;
10230;SDS011;62604;49.432;8.680;2023-05-23T07:02:21;19.10;;;15.32;;
10230;SDS011;62604;49.432;8.680;2023-05-23T07:04:51;40.60;;;18.65;;
10230;SDS011;62604;49.432;8.680;2023-05-23T07:07:19;22.58;;;16.00;;
10230;SDS011;62604;49.432;8.680;2023-05-23T07:09:47;16.65;;;14.95;;
10230;SDS011;62604;49.432;8.680;2023-05-23T07:12:18;18.35;;;16.35;;
10230;SDS011;62604;49.432;8.680;2023-05-23T07:14:45;23.00;;;16.90;;
10230;SDS011;62604;49.432;8.680;2023-05-23T07:17:12;32.15;;;17.77;;
10230;SDS011;62604;49.432;8.680;2023-05-23T07:19:41;22.70;;;15.23;;
10230;SDS011;62604;49.432;8.680;2023-05-23T07:22:08;23.55;;;15.50;;
10230;SDS011;62604;49.432;8.680;2023-05-23T07:24:37;14.23;;;12.80;;
10230;SDS011;62604;49.432;8.680;2023-05-23T07:27:05;15.60;;;12.68;;
10230;SDS011;62604;49.432;8.680;2023-05-23T07:29:38;13.95;;;12.75;;
10230;SDS011;62604;49.432;8.680;2023-05-23T07:32:06;14.63;;;12.77;;
10230;SDS011;62604;49.432;8.680;2023-05-23T07:34:36;13.63;;;12.30;;
10230;SDS011;62604;49.432;8.680;2023-05-23T07:37:04;14.20;;;12.80;;
10230;SDS011;62604;49.432;8.680;2023-05-23T07:39:36;13.75;;;12.60;;
10230;SDS011;62604;49.432;8.680;2023-05-23T07:42:09;13.13;;;12.13;;
10230;SDS011;62604;49.432;8.680;2023-05-23T07:44:45;13.40;;;12.27;;
10230;SDS011;62604;49.432;8.680;2023-05-23T07:47:12;13.80;;;12.60;;
10230;SDS011;62604;49.432;8.680;2023-05-23T07:49:39;13.13;;;12.10;;
10230;SDS011;62604;49.432;8.680;2023-05-23T07:52:07;13.75;;;12.32;;
10230;SDS011;62604;49.432;8.680;2023-05-23T07:54:36;14.25;;;12.82;;
10230;SDS011;62604;49.432;8.680;2023-05-23T07:57:04;13.93;;;12.75;;
10230;SDS011;62604;49.432;8.680;2023-05-23T07:59:33;13.02;;;11.93;;
10230;SDS011;62604;49.432;8.680;2023-05-23T08:02:02;14.30;;;13.07;;
10230;SDS011;62604;49.432;8.680;2023-05-23T08:04:29;103.75;;;32.15;;
10230;SDS011;62604;49.432;8.680;2023-05-23T08:06:58;27.10;;;17.25;;
10230;SDS011;62604;49.432;8.680;2023-05-23T08:09:32;17.17;;;12.85;;
10230;SDS011;62604;49.432;8.680;2023-05-23T08:11:59;13.50;;;12.30;;
10230;SDS011;62604;49.432;8.680;2023-05-23T08:14:26;13.30;;;12.10;;
10230;SDS011;62604;49.432;8.680;2023-05-23T08:16:54;13.35;;;12.15;;
10230;SDS011;62604;49.432;8.680;2023-05-23T08:19:23;12.30;;;11.30;;
10230;SDS011;62604;49.432;8.680;2023-05-23T08:21:49;12.57;;;11.57;;
10230;SDS011;62604;49.432;8.680;2023-05-23T08:24:17;12.70;;;11.38;;
10230;SDS011;62604;49.432;8.680;2023-05-23T08:26:44;13.43;;;11.50;;
10230;SDS011;62604;49.432;8.680;2023-05-23T08:29:13;12.60;;;11.70;;
10230;SDS011;62604;49.432;8.680;2023-05-23T08:31:40;12.85;;;11.70;;
10230;SDS011;62604;49.432;8.680;2023-05-23T08:34:07;11.93;;;11.05;;
10230;SDS011;62604;49.432;8.680;2023-05-23T08:36:35;12.80;;;11.60;;
10230;SDS011;62604;49.432;8.680;2023-05-23T08:39:03;12.48;;;11.23;;
10230;SDS011;62604;49.432;8.680;2023-05-23T08:41:31;12.43;;;11.32;;
10230;SDS011;62604;49.432;8.680;2023-05-23T08:44:00;12.48;;;11.48;;
10230;SDS011;62604;49.432;8.680;2023-05-23T08:46:27;12.05;;;11.15;;
10230;SDS011;62604;49.432;8.680;2023-05-23T08:48:55;11.77;;;10.88;;
10230;SDS011;62604;49.432;8.680;2023-05-23T08:51:24;10.10;;;9.20;;
10230;SDS011;62604;49.432;8.680;2023-05-23T08:54:01;12.68;;;11.63;;
10230;SDS011;62604;49.432;8.680;2023-05-23T08:56:32;11.95;;;11.07;;
10230;SDS011;62604;49.432;8.680;2023-05-23T08:59:00;12.05;;;11.15;;
10230;SDS011;62604;49.432;8.680;2023-05-23T09:01:29;12.20;;;11.30;;
10230;SDS011;62604;49.432;8.680;2023-05-23T09:03:58;12.70;;;11.65;;
10230;SDS011;62604;49.432;8.680;2023-05-23T09:06:29;12.13;;;11.25;;
10230;SDS011;62604;49.432;8.680;2023-05-23T09:08:56;11.98;;;11.10;;
10230;SDS011;62604;49.432;8.680;2023-05-23T09:11:25;12.07;;;11.15;;
10230;SDS011;62604;49.432;8.680;2023-05-23T09:13:53;11.95;;;11.05;;
10230;SDS011;62604;49.432;8.680;2023-05-23T09:16:21;11.88;;;11.00;;
10230;SDS011;62604;49.432;8.680;2023-05-23T09:18:49;11.60;;;10.80;;
10230;SDS011;62604;49.432;8.680;2023-05-23T09:21:16;12.02;;;11.13;;
10230;SDS011;62604;49.432;8.680;2023-05-23T09:23:45;12.48;;;11.48;;
10230;SDS011;62604;49.432;8.680;2023-05-23T09:26:12;12.00;;;11.10;;
10230;SDS011;62604;49.432;8.680;2023-05-23T09:28:41;12.13;;;11.23;;
10230;SDS011;62604;49.432;8.680;2023-05-23T09:31:12;10.15;;;9.35;;
10230;SDS011;62604;49.432;8.680;2023-05-23T09:33:42;12.35;;;11.38;;
10230;SDS011;62604;49.432;8.680;2023-05-23T09:36:12;12.07;;;11.27;;
10230;SDS011;62604;49.432;8.680;2023-05-23T09:38:40;11.50;;;10.70;;
10230;SDS011;62604;49.432;8.680;2023-05-23T09:41:07;11.80;;;10.90;;
10230;SDS011;62604;49.432;8.680;2023-05-23T09:43:36;12.00;;;11.10;;
10230;SDS011;62604;49.432;8.680;2023-05-23T09:46:18;11.85;;;11.05;;
10230;SDS011;62604;49.432;8.680;2023-05-23T09:48:46;12.02;;;11.15;;
10230;SDS011;62604;49.432;8.680;2023-05-23T09:51:16;12.13;;;11.23;;
10230;SDS011;62604;49.432;8.680;2023-05-23T09:53:45;11.63;;;10.77;;
10230;SDS011;62604;49.432;8.680;2023-05-23T09:56:14;11.57;;;10.77;;
10230;SDS011;62604;49.432;8.680;2023-05-23T09:58:43;11.80;;;10.80;;
10230;SDS011;62604;49.432;8.680;2023-05-23T10:01:12;11.52;;;10.73;;
10230;SDS011;62604;49.432;8.680;2023-05-23T10:03:43;11.85;;;10.95;;
10230;SDS011;62604;49.432;8.680;2023-05-23T10:06:15;11.90;;;10.80;;
10230;SDS011;62604;49.432;8.680;2023-05-23T10:08:51;12.23;;;11.32;;
10230;SDS011;62604;49.432;8.680;2023-05-23T10:14:48;11.45;;;10.65;;
10230;SDS011;62604;49.432;8.680;2023-05-23T10:17:18;11.45;;;10.52;;
10230;SDS011;62604;49.432;8.680;2023-05-23T10:19:59;11.40;;;10.60;;
10230;SDS011;62604;49.432;8.680;2023-05-23T10:22:32;11.07;;;10.27;;
10230;SDS011;62604;49.432;8.680;2023-05-23T10:25:02;12.73;;;10.75;;
10230;SDS011;62604;49.432;8.680;2023-05-23T10:27:32;11.57;;;10.77;;
10230;SDS011;62604;49.432;8.680;2023-05-23T10:30:00;11.27;;;10.48;;
10230;SDS011;62604;49.432;8.680;2023-05-23T10:32:28;11.20;;;10.40;;
10230;SDS011;62604;49.432;8.680;2023-05-23T10:35:00;11.27;;;10.48;;
10230;SDS011;62604;49.432;8.680;2023-05-23T10:37:34;12.13;;;11.23;;
10230;SDS011;62604;49.432;8.680;2023-05-23T10:40:08;10.82;;;9.95;;
10230;SDS011;62604;49.432;8.680;2023-05-23T10:42:44;11.63;;;10.63;;
10230;SDS011;62604;49.432;8.680;2023-05-23T10:45:18;11.07;;;10.35;;
10230;SDS011;62604;49.432;8.680;2023-05-23T10:47:48;10.98;;;10.27;;
10230;SDS011;62604;49.432;8.680;2023-05-23T10:50:30;11.55;;;10.45;;
10230;SDS011;62604;49.432;8.680;2023-05-23T10:53:01;11.30;;;10.50;;
10230;SDS011;62604;49.432;8.680;2023-05-23T10:55:32;11.20;;;10.50;;
10230;SDS011;62604;49.432;8.680;2023-05-23T10:58:10;10.98;;;10.27;;
10230;SDS011;62604;49.432;8.680;2023-05-23T11:00:46;11.20;;;10.40;;
10230;SDS011;62604;49.432;8.680;2023-05-23T11:03:29;11.38;;;10.50;;
10230;SDS011;62604;49.432;8.680;2023-05-23T11:06:02;11.07;;;10.27;;
10230;SDS011;62604;49.432;8.680;2023-05-23T11:08:36;10.80;;;10.10;;
10230;SDS011;62604;49.432;8.680;2023-05-23T11:11:10;10.90;;;10.10;;
10230;SDS011;62604;49.432;8.680;2023-05-23T11:13:53;11.30;;;10.40;;
10230;SDS011;62604;49.432;8.680;2023-05-23T11:16:26;11.10;;;10.27;;
10230;SDS011;62604;49.432;8.680;2023-05-23T11:21:53;10.93;;;10.07;;
10230;SDS011;62604;49.432;8.680;2023-05-23T11:27:15;10.88;;;10.15;;
10230;SDS011;62604;49.432;8.680;2023-05-23T11:29:44;11.50;;;10.65;;
10230;SDS011;62604;49.432;8.680;2023-05-23T11:32:22;11.07;;;10.27;;
10230;SDS011;62604;49.432;8.680;2023-05-23T11:34:49;11.38;;;10.48;;
10230;SDS011;62604;49.432;8.680;2023-05-23T11:37:19;11.18;;;10.18;;
10230;SDS011;62604;49.432;8.680;2023-05-23T11:39:48;11.20;;;10.40;;
10230;SDS011;62604;49.432;8.680;2023-05-23T11:42:15;11.50;;;10.70;;
10230;SDS011;62604;49.432;8.680;2023-05-23T11:44:42;11.00;;;10.20;;
10230;SDS011;62604;49.432;8.680;2023-05-23T11:47:09;12.05;;;10.98;;
10230;SDS011;62604;49.432;8.680;2023-05-23T11:49:39;10.70;;;10.00;;
10230;SDS011;62604;49.432;8.680;2023-05-23T11:52:07;11.07;;;10.20;;
10230;SDS011;62604;49.432;8.680;2023-05-23T11:54:36;11.35;;;10.55;;
10230;SDS011;62604;49.432;8.680;2023-05-23T11:57:05;11.80;;;10.90;;
10230;SDS011;62604;49.432;8.680;2023-05-23T11:59:32;11.95;;;10.80;;
10230;SDS011;62604;49.432;8.680;2023-05-23T12:02:00;10.70;;;10.00;;
10230;SDS011;62604;49.432;8.680;2023-05-23T12:04:29;11.15;;;10.35;;
10230;SDS011;62604;49.432;8.680;2023-05-23T12:06:56;11.35;;;10.52;;
10230;SDS011;62604;49.432;8.680;2023-05-23T12:09:23;11.18;;;10.25;;
10230;SDS011;62604;49.432;8.680;2023-05-23T12:11:52;11.13;;;10.43;;
10230;SDS011;62604;49.432;8.680;2023-05-23T12:14:19;9.35;;;8.55;;
10230;SDS011;62604;49.432;8.680;2023-05-23T12:16:46;9.30;;;8.70;;
10230;SDS011;62604;49.432;8.680;2023-05-23T12:19:15;9.25;;;8.55;;
10230;SDS011;62604;49.432;8.680;2023-05-23T12:21:43;9.57;;;8.88;;
10230;SDS011;62604;49.432;8.680;2023-05-23T12:24:14;9.00;;;8.45;;
10230;SDS011;62604;49.432;8.680;2023-05-23T12:26:46;11.07;;;10.27;;
10230;SDS011;62604;49.432;8.680;2023-05-23T12:29:19;12.02;;;11.13;;
10230;SDS011;62604;49.432;8.680;2023-05-23T12:31:49;11.48;;;10.68;;
10230;SDS011;62604;49.432;8.680;2023-05-23T12:34:18;12.10;;;11.20;;
10230;SDS011;62604;49.432;8.680;2023-05-23T12:36:46;12.07;;;11.18;;
10230;SDS011;62604;49.432;8.680;2023-05-23T12:39:22;12.38;;;11.38;;
10230;SDS011;62604;49.432;8.680;2023-05-23T12:41:51;12.48;;;11.57;;
10230;SDS011;62604;49.432;8.680;2023-05-23T12:44:21;13.48;;;12.32;;
10230;SDS011;62604;49.432;8.680;2023-05-23T12:46:49;11.05;;;10.25;;
10230;SDS011;62604;49.432;8.680;2023-05-23T12:49:16;11.40;;;10.50;;
10230;SDS011;62604;49.432;8.680;2023-05-23T12:51:45;10.93;;;10.13;;
10230;SDS011;62604;49.432;8.680;2023-05-23T12:54:16;10.43;;;9.43;;
10230;SDS011;62604;49.432;8.680;2023-05-23T12:56:43;12.60;;;11.60;;
10230;SDS011;62604;49.432;8.680;2023-05-23T12:59:10;13.05;;;11.80;;
10230;SDS011;62604;49.432;8.680;2023-05-23T13:01:47;12.82;;;11.73;;
10230;SDS011;62604;49.432;8.680;2023-05-23T13:04:14;13.10;;;11.88;;
10230;SDS011;62604;49.432;8.680;2023-05-23T13:06:42;13.48;;;11.60;;
10230;SDS011;62604;49.432;8.680;2023-05-23T13:09:10;12.68;;;11.57;;
10230;SDS011;62604;49.432;8.680;2023-05-23T13:11:38;13.25;;;12.10;;
10230;SDS011;62604;49.432;8.680;2023-05-23T13:14:07;12.82;;;11.82;;
10230;SDS011;62604;49.432;8.680;2023-05-23T13:16:34;11.80;;;10.93;;
10230;SDS011;62604;49.432;8.680;2023-05-23T13:19:04;12.77;;;11.88;;
10230;SDS011;62604;49.432;8.680;2023-05-23T13:21:32;12.63;;;11.73;;
10230;SDS011;62604;49.432;8.680;2023-05-23T13:23:59;13.07;;;12.05;;
10230;SDS011;62604;49.432;8.680;2023-05-23T13:26:27;13.13;;;12.02;;
10230;SDS011;62604;49.432;8.680;2023-05-23T13:28:54;12.80;;;11.80;;
10230;SDS011;62604;49.432;8.680;2023-05-23T13:31:22;13.23;;;12.23;;
10230;SDS011;62604;49.432;8.680;2023-05-23T13:33:50;12.40;;;11.40;;
10230;SDS011;62604;49.432;8.680;2023-05-23T13:36:19;12.85;;;11.77;;
10230;SDS011;62604;49.432;8.680;2023-05-23T13:38:46;11.13;;;10.23;;
10230;SDS011;62604;49.432;8.680;2023-05-23T13:41:13;11.60;;;10.70;;
10230;SDS011;62604;49.432;8.680;2023-05-23T13:43:40;13.15;;;11.43;;
10230;SDS011;62604;49.432;8.680;2023-05-23T13:46:07;12.07;;;11.00;;
10230;SDS011;62604;49.432;8.680;2023-05-23T13:48:34;12.30;;;11.40;;
10230;SDS011;62604;49.432;8.680;2023-05-23T13:51:01;12.75;;;11.75;;
10230;SDS011;62604;49.432;8.680;2023-05-23T13:53:29;12.93;;;11.70;;
10230;SDS011;62604;49.432;8.680;2023-05-23T13:55:56;12.27;;;11.27;;
10230;SDS011;62604;49.432;8.680;2023-05-23T13:58:24;12.68;;;11.65;;
10230;SDS011;62604;49.432;8.680;2023-05-23T14:00:51;13.43;;;12.10;;
10230;SDS011;62604;49.432;8.680;2023-05-23T14:03:19;13.80;;;12.50;;
10230;SDS011;62604;49.432;8.680;2023-05-23T14:05:46;13.40;;;12.30;;
10230;SDS011;62604;49.432;8.680;2023-05-23T14:08:18;13.15;;;12.15;;
10230;SDS011;62604;49.432;8.680;2023-05-23T14:10:46;13.20;;;12.10;;
10230;SDS011;62604;49.432;8.680;2023-05-23T14:13:13;13.57;;;12.50;;
10230;SDS011;62604;49.432;8.680;2023-05-23T14:15:41;14.20;;;12.73;;
10230;SDS011;62604;49.432;8.680;2023-05-23T14:18:08;14.43;;;11.40;;
10230;SDS011;62604;49.432;8.680;2023-05-23T14:20:35;12.52;;;11.43;;
10230;SDS011;62604;49.432;8.680;2023-05-23T14:23:02;12.43;;;11.43;;
10230;SDS011;62604;49.432;8.680;2023-05-23T14:25:29;11.77;;;10.88;;
10230;SDS011;62604;49.432;8.680;2023-05-23T14:27:58;11.25;;;10.45;;
10230;SDS011;62604;49.432;8.680;2023-05-23T14:30:25;11.23;;;10.43;;
10230;SDS011;62604;49.432;8.680;2023-05-23T14:32:52;11.05;;;10.27;;
10230;SDS011;62604;49.432;8.680;2023-05-23T14:35:19;11.30;;;10.43;;
10230;SDS011;62604;49.432;8.680;2023-05-23T14:37:47;11.18;;;10.38;;
10230;SDS011;62604;49.432;8.680;2023-05-23T14:40:15;11.55;;;10.65;;